createdAt,value
2023-08-07T00:02:26.752Z,94473.85
2023-08-07T00:04:54.054Z,94482.16
2023-08-07T00:07:20.966Z,94482.54
2023-08-07T00:09:47.931Z,94479.89
2023-08-07T00:12:14.779Z,94481.37
2023-08-07T00:14:41.840Z,94480.85
2023-08-07T00:17:09.039Z,94479.94
2023-08-07T00:19:36.041Z,94479.02
2023-08-07T00:22:03.033Z,94473.65
2023-08-07T00:24:29.939Z,94468.52
2023-08-07T00:26:57.250Z,94472.96
2023-08-07T00:29:24.574Z,94480.02
2023-08-07T00:31:51.387Z,94485.21
2023-08-07T00:34:18.351Z,94486.34
2023-08-07T00:36:45.813Z,94486.75
2023-08-07T00:39:12.778Z,94486.23
2023-08-07T00:41:40.822Z,94489.86
2023-08-07T00:44:07.821Z,94494.80
2023-08-07T00:46:36.387Z,94498.46
2023-08-07T00:49:04.439Z,94503.80
2023-08-07T00:51:32.113Z,94505.92
2023-08-07T00:54:02.315Z,94514.08
2023-08-07T00:56:31.011Z,94511.52
2023-08-07T00:58:59.250Z,94507.77
2023-08-07T01:01:26.806Z,94504.02
2023-08-07T01:03:54.322Z,94504.56
2023-08-07T01:06:21.545Z,94501.08
2023-08-07T01:08:48.948Z,94509.30
2023-08-07T01:11:21.704Z,94513.98
2023-08-07T01:14:10.282Z,94521.82
2023-08-07T01:16:51.287Z,94530.70
2023-08-07T01:19:27.443Z,94532.36
2023-08-07T01:22:14.602Z,94531.63
2023-08-07T01:24:46.161Z,94533.17
2023-08-07T01:27:19.259Z,94536.53
2023-08-07T01:29:50.324Z,94531.63
2023-08-07T01:32:25.298Z,94535.16
2023-08-07T01:34:54.659Z,94529.23
2023-08-07T01:37:23.491Z,94531.06
2023-08-07T01:39:52.220Z,94531.80
2023-08-07T01:42:19.278Z,94531.68
2023-08-07T01:44:46.578Z,94527.20
2023-08-07T01:47:13.498Z,94525.48
2023-08-07T01:49:41.270Z,94523.38
2023-08-07T01:52:09.371Z,94526.15
2023-08-07T01:54:36.262Z,94535.30
2023-08-07T01:57:03.577Z,94539.51
2023-08-07T01:59:31.699Z,94540.48
2023-08-07T02:01:58.818Z,94540.69
2023-08-07T02:04:25.905Z,94532.96
2023-08-07T02:06:54.316Z,94537.39
2023-08-07T02:09:23.193Z,94541.84
2023-08-07T02:11:50.324Z,94543.50
2023-08-07T02:14:17.370Z,94542.88
2023-08-07T02:16:44.243Z,94545.75
2023-08-07T02:19:11.583Z,94547.79
2023-08-07T02:21:39.557Z,94548.35
2023-08-07T02:24:06.522Z,94550.18
2023-08-07T02:26:33.155Z,94553.71
2023-08-07T02:29:00.213Z,94558.02
2023-08-07T02:31:27.085Z,94556.09
2023-08-07T02:33:55.305Z,94558.98
2023-08-07T02:36:22.077Z,94557.64
2023-08-07T02:38:48.994Z,94556.83
2023-08-07T02:41:15.851Z,94559.52
2023-08-07T02:43:43.703Z,94562.39
2023-08-07T02:46:10.490Z,94569.17
2023-08-07T02:48:38.013Z,94575.33
2023-08-07T02:51:04.883Z,94577.16
2023-08-07T02:53:32.003Z,94581.46
2023-08-07T02:55:58.951Z,94581.86
2023-08-07T02:58:25.623Z,94583.10
2023-08-07T03:00:52.743Z,94583.41
2023-08-07T03:03:19.703Z,94583.73
2023-08-07T03:05:51.581Z,94584.36
2023-08-07T03:08:18.537Z,94589.35
2023-08-07T03:10:57.459Z,94587.93
2023-08-07T03:13:26.471Z,94592.74
2023-08-07T03:16:19.809Z,94596.55
2023-08-07T03:18:47.563Z,94595.93
2023-08-07T03:21:14.751Z,94597.63
2023-08-07T03:23:42.062Z,94597.81
2023-08-07T03:26:18.971Z,94602.28
2023-08-07T03:28:49.121Z,94601.52
2023-08-07T03:31:17.215Z,94600.55
2023-08-07T03:33:44.449Z,94601.96
2023-08-07T03:36:12.953Z,94603.00
2023-08-07T03:38:41.497Z,94608.02
2023-08-07T03:41:08.964Z,94610.14
2023-08-07T03:43:36.302Z,94611.02
2023-08-07T03:46:04.269Z,94615.25
2023-08-07T03:48:32.222Z,94616.33
2023-08-07T03:51:04.901Z,94623.25
2023-08-07T03:53:32.918Z,94627.45
2023-08-07T03:55:59.939Z,94632.23
2023-08-07T03:58:27.316Z,94641.09
2023-08-07T04:00:54.890Z,94642.55
2023-08-07T04:03:22.582Z,94650.05
2023-08-07T04:05:54.757Z,94653.49
2023-08-07T04:08:24.169Z,94658.36
2023-08-07T04:11:01.695Z,94662.27
2023-08-07T04:13:29.672Z,94665.75
2023-08-07T04:15:57.352Z,94666.06
2023-08-07T04:18:25.134Z,94671.10
2023-08-07T04:20:56.527Z,94671.59
2023-08-07T04:23:24.301Z,94670.30
2023-08-07T04:25:52.578Z,94674.38
2023-08-07T04:28:20.060Z,94676.05
2023-08-07T04:30:53.957Z,94678.64
2023-08-07T04:33:21.528Z,94677.00
2023-08-07T04:35:49.143Z,94671.81
2023-08-07T04:38:17.588Z,94671.41
2023-08-07T04:40:49.552Z,94666.42
2023-08-07T04:43:18.471Z,94669.58
2023-08-07T04:45:48.328Z,94673.02
2023-08-07T04:48:16.068Z,94675.21
2023-08-07T04:50:43.086Z,94672.20
2023-08-07T04:53:10.104Z,94672.66
2023-08-07T04:55:37.349Z,94669.65
2023-08-07T04:58:04.564Z,94669.92
2023-08-07T05:00:31.361Z,94674.98
2023-08-07T05:02:58.519Z,94677.69
2023-08-07T05:05:25.682Z,94673.73
2023-08-07T05:07:52.702Z,94671.94
2023-08-07T05:10:19.771Z,94667.15
2023-08-07T05:12:46.731Z,94665.61
2023-08-07T05:15:13.560Z,94663.49
2023-08-07T05:17:40.785Z,94666.58
2023-08-07T05:20:09.365Z,94664.67
2023-08-07T05:22:36.451Z,94668.86
2023-08-07T05:25:03.895Z,94669.04
2023-08-07T05:27:30.814Z,94672.18
2023-08-07T05:29:57.780Z,94673.13
2023-08-07T05:32:24.844Z,94671.88
2023-08-07T05:34:51.980Z,94678.14
2023-08-07T05:37:18.654Z,94684.94
2023-08-07T05:39:45.786Z,94689.50
2023-08-07T05:42:13.499Z,94693.22
2023-08-07T05:44:40.264Z,94700.52
2023-08-07T05:47:08.068Z,94707.61
2023-08-07T05:49:35.056Z,94711.30
2023-08-07T05:52:02.043Z,94718.20
2023-08-07T05:54:29.143Z,94718.71
2023-08-07T05:56:56.239Z,94721.71
2023-08-07T05:59:23.295Z,94722.44
2023-08-07T06:01:50.507Z,94725.98
2023-08-07T06:04:18.222Z,94728.38
2023-08-07T06:06:46.489Z,94723.58
2023-08-07T06:09:15.594Z,94720.40
2023-08-07T06:11:42.894Z,94716.67
2023-08-07T06:14:10.410Z,94715.48
2023-08-07T06:16:37.374Z,94721.33
2023-08-07T06:21:31.971Z,94712.86
2023-08-07T06:23:59.049Z,94713.86
2023-08-07T06:26:25.794Z,94720.05
2023-08-07T06:28:53.015Z,94717.98
2023-08-07T06:31:19.737Z,94720.39
2023-08-07T06:33:46.547Z,94723.19
2023-08-07T06:36:13.699Z,94729.55
2023-08-07T06:38:40.594Z,94729.23
2023-08-07T06:41:07.680Z,94732.40
2023-08-07T06:43:34.691Z,94731.02
2023-08-07T06:46:01.965Z,94730.20
2023-08-07T06:48:29.314Z,94734.45
2023-08-07T06:50:56.065Z,94739.48
2023-08-07T06:53:22.843Z,94741.54
2023-08-07T06:55:49.973Z,94740.33
2023-08-07T06:58:16.885Z,94742.02
2023-08-07T07:00:43.844Z,94742.71
2023-08-07T07:03:10.877Z,94749.16
2023-08-07T07:05:38.655Z,94754.45
2023-08-07T07:08:05.395Z,94756.36
2023-08-07T07:10:33.064Z,94757.75
2023-08-07T07:13:00.128Z,94761.16
2023-08-07T07:15:27.173Z,94764.10
2023-08-07T07:17:54.459Z,94767.59
2023-08-07T07:20:21.698Z,94764.30
2023-08-07T07:22:48.355Z,94771.95
2023-08-07T07:25:15.374Z,94771.73
2023-08-07T07:27:42.295Z,94777.12
2023-08-07T07:30:10.186Z,94779.89
2023-08-07T07:32:37.165Z,94776.77
2023-08-07T07:35:04.684Z,94787.82
2023-08-07T07:37:32.758Z,94782.41
2023-08-07T07:39:59.531Z,94787.09
2023-08-07T07:42:26.450Z,94789.20
2023-08-07T07:44:53.391Z,94788.77
2023-08-07T07:47:21.229Z,94794.15
2023-08-07T07:49:48.271Z,94797.88
2023-08-07T07:52:16.078Z,94801.45
2023-08-07T07:54:45.477Z,94805.77
2023-08-07T07:57:12.360Z,94810.51
2023-08-07T07:59:39.378Z,94815.66
2023-08-07T08:02:06.936Z,94820.33
2023-08-07T08:04:35.943Z,94831.95
2023-08-07T08:07:04.522Z,94834.77
2023-08-07T08:09:31.508Z,94836.48
2023-08-07T08:11:58.385Z,94843.77
2023-08-07T08:14:25.464Z,94848.31
2023-08-07T08:16:52.228Z,94845.33
2023-08-07T08:19:18.997Z,94844.80
2023-08-07T08:21:45.822Z,94834.56
2023-08-07T08:24:12.683Z,94837.94
2023-08-07T08:26:39.622Z,94839.65
2023-08-07T08:29:07.469Z,94846.24
2023-08-07T08:31:37.152Z,94850.36
2023-08-07T08:34:04.630Z,94853.54
2023-08-07T08:36:31.663Z,94852.94
2023-08-07T08:38:58.619Z,94848.58
2023-08-07T08:41:26.696Z,94852.86
2023-08-07T08:43:55.415Z,94850.77
2023-08-07T08:46:25.036Z,94856.33
2023-08-07T08:48:58.054Z,94865.84
2023-08-07T08:51:26.011Z,94874.14
2023-08-07T08:53:54.497Z,94876.16
2023-08-07T08:56:23.371Z,94883.73
2023-08-07T08:58:53.809Z,94887.98
2023-08-07T09:01:25.010Z,94890.55
2023-08-07T09:03:54.437Z,94890.80
2023-08-07T09:06:21.671Z,94884.59
2023-08-07T09:08:51.442Z,94881.69
2023-08-07T09:11:19.796Z,94892.98
2023-08-07T09:13:49.592Z,94895.31
2023-08-07T09:16:18.193Z,94898.13
2023-08-07T09:18:46.343Z,94897.83
2023-08-07T09:21:16.719Z,94903.63
2023-08-07T09:23:44.127Z,94918.62
2023-08-07T09:26:11.474Z,94915.40
2023-08-07T09:28:39.353Z,94920.21
2023-08-07T09:31:10.129Z,94923.65
2023-08-07T09:33:40.008Z,94920.66
2023-08-07T09:36:06.744Z,94929.92
2023-08-07T09:38:33.734Z,94940.05
2023-08-07T09:41:02.100Z,94940.14
2023-08-07T09:43:29.120Z,94934.75
2023-08-07T09:46:06.577Z,94938.25
2023-08-07T09:48:41.499Z,94942.61
2023-08-07T09:51:08.484Z,94941.33
2023-08-07T09:53:35.688Z,94941.38
2023-08-07T09:56:03.840Z,94945.84
2023-08-07T09:58:30.660Z,94953.73
2023-08-07T10:01:04.784Z,94958.67
2023-08-07T10:03:32.397Z,94959.60
2023-08-07T10:06:00.129Z,94962.58
2023-08-07T10:08:27.467Z,94958.35
2023-08-07T10:10:55.021Z,94966.52
2023-08-07T10:13:34.433Z,94968.16
2023-08-07T10:16:07.351Z,94969.08
2023-08-07T10:18:35.958Z,94972.23
2023-08-07T10:21:06.154Z,94976.95
2023-08-07T10:23:36.809Z,94985.23
2023-08-07T10:26:09.419Z,94983.70
2023-08-07T10:28:39.909Z,94981.17
2023-08-07T10:31:12.827Z,94983.59
2023-08-07T10:33:41.817Z,94985.80
2023-08-07T10:36:10.739Z,94984.60
2023-08-07T10:38:38.241Z,94986.38
2023-08-07T10:41:15.165Z,94985.29
2023-08-07T10:43:44.122Z,94976.09
2023-08-07T10:46:21.331Z,94978.39
2023-08-07T10:49:01.042Z,94976.98
2023-08-07T10:51:34.043Z,94978.26
2023-08-07T10:54:02.668Z,94988.78
2023-08-07T10:56:37.810Z,94989.00
2023-08-07T10:59:12.887Z,94987.73
2023-08-07T11:01:40.251Z,94985.57
2023-08-07T11:04:15.186Z,94987.28
2023-08-07T11:06:45.215Z,94992.54
2023-08-07T11:09:12.263Z,94989.80
2023-08-07T11:11:43.857Z,94989.53
2023-08-07T11:14:15.994Z,94984.42
2023-08-07T11:16:43.957Z,94987.41
2023-08-07T11:19:14.223Z,94981.66
2023-08-07T11:21:43.072Z,94981.30
2023-08-07T11:24:14.541Z,94979.44
2023-08-07T11:26:44.455Z,94983.27
2023-08-07T11:29:11.401Z,94981.59
2023-08-07T11:31:38.388Z,94977.15
2023-08-07T11:34:05.605Z,94972.11
2023-08-07T11:36:34.414Z,94973.79
2023-08-07T11:39:01.746Z,94975.14
2023-08-07T11:41:32.777Z,94972.39
2023-08-07T11:44:00.582Z,94978.40
2023-08-07T11:46:28.004Z,94973.11
2023-08-07T11:48:56.747Z,94978.05
2023-08-07T11:51:24.029Z,94968.13
2023-08-07T11:53:57.052Z,94966.55
2023-08-07T11:56:24.017Z,94966.08
2023-08-07T11:58:53.603Z,94970.93
2023-08-07T12:01:27.153Z,94978.98
2023-08-07T12:04:08.891Z,94981.33
2023-08-07T12:06:36.686Z,94974.73
2023-08-07T12:09:04.104Z,94978.09
2023-08-07T12:11:31.828Z,94978.93
2023-08-07T12:14:04.116Z,94982.52
2023-08-07T12:16:36.299Z,94983.36
2023-08-07T12:19:05.608Z,94978.61
2023-08-07T12:21:34.049Z,94985.64
2023-08-07T12:24:01.040Z,94979.17
2023-08-07T12:26:27.910Z,94974.38
2023-08-07T12:28:55.495Z,94977.51
2023-08-07T12:31:23.148Z,94979.62
2023-08-07T12:33:50.114Z,94975.77
2023-08-07T12:36:20.988Z,94974.39
2023-08-07T12:38:49.001Z,94974.60
2023-08-07T12:43:46.226Z,94976.08
2023-08-07T12:48:42.825Z,94980.99
2023-08-07T12:51:09.770Z,94984.55
2023-08-07T12:53:36.820Z,94984.20
2023-08-07T12:56:05.605Z,94983.74
2023-08-07T12:58:32.683Z,94985.86
2023-08-07T13:00:59.417Z,94995.15
2023-08-07T13:03:26.415Z,94997.84
2023-08-07T13:05:53.620Z,94997.55
2023-08-07T13:08:20.410Z,94993.84
2023-08-07T13:10:50.028Z,94991.73
2023-08-07T13:13:17.611Z,94988.35
2023-08-07T13:15:44.436Z,94984.26
2023-08-07T13:18:11.626Z,94984.15
2023-08-07T13:20:38.408Z,94985.63
2023-08-07T13:23:06.757Z,94978.17
2023-08-07T13:25:33.884Z,94984.31
2023-08-07T13:28:02.082Z,94981.43
2023-08-07T13:30:33.585Z,94980.41
2023-08-07T13:33:03.128Z,94988.55
2023-08-07T13:35:30.398Z,94984.44
2023-08-07T13:37:57.361Z,94989.95
2023-08-07T13:40:24.530Z,94989.12
2023-08-07T13:42:51.523Z,94991.91
2023-08-07T13:45:18.170Z,94991.05
2023-08-07T13:47:44.862Z,94991.38
2023-08-07T13:50:13.293Z,95002.86
2023-08-07T13:52:40.039Z,95000.25
2023-08-07T13:55:09.449Z,95009.70
2023-08-07T13:57:36.520Z,95009.18
2023-08-07T14:00:04.252Z,95009.54
2023-08-07T14:02:34.136Z,95010.38
2023-08-07T14:05:01.321Z,95014.55
2023-08-07T14:07:28.106Z,95018.77
2023-08-07T14:09:55.054Z,95014.73
2023-08-07T14:12:21.873Z,95015.96
2023-08-07T14:14:48.815Z,95017.69
2023-08-07T14:17:15.858Z,95023.45
2023-08-07T14:19:43.137Z,95021.30
2023-08-07T14:22:10.811Z,95028.77
2023-08-07T14:24:38.032Z,95027.77
2023-08-07T14:27:05.186Z,95027.87
2023-08-07T14:29:32.333Z,95028.95
2023-08-07T14:31:59.386Z,95035.95
2023-08-07T14:34:26.166Z,95035.28
2023-08-07T14:36:54.940Z,95037.08
2023-08-07T14:39:22.663Z,95038.69
2023-08-07T14:41:52.572Z,95041.22
2023-08-07T14:44:19.445Z,95041.92
2023-08-07T14:46:46.598Z,95042.90
2023-08-07T14:49:13.457Z,95045.77
2023-08-07T14:51:40.485Z,95045.70
2023-08-07T14:54:07.460Z,95044.61
2023-08-07T14:56:34.383Z,95045.19
2023-08-07T14:59:01.468Z,95049.98
2023-08-07T15:01:28.356Z,95048.86
2023-08-07T15:03:55.428Z,95056.55
2023-08-07T15:06:22.477Z,95058.67
2023-08-07T15:08:49.553Z,95053.25
2023-08-07T15:11:17.505Z,95047.95
2023-08-07T15:13:44.587Z,95050.42
2023-08-07T15:16:13.501Z,95055.75
2023-08-07T15:19:05.722Z,95060.36
2023-08-07T15:21:32.747Z,95062.14
2023-08-07T15:23:59.992Z,95057.48
2023-08-07T15:26:27.557Z,95059.09
2023-08-07T15:28:54.799Z,95062.17
2023-08-07T15:31:21.801Z,95066.30
2023-08-07T15:33:51.363Z,95062.70
2023-08-07T15:36:18.107Z,95064.35
2023-08-07T15:38:44.953Z,95065.15
2023-08-07T15:41:12.608Z,95068.13
2023-08-07T15:43:39.574Z,95070.30
2023-08-07T15:46:06.428Z,95071.07
2023-08-07T15:48:33.219Z,95072.77
2023-08-07T15:51:00.111Z,95076.00
2023-08-07T15:53:27.356Z,95073.80
2023-08-07T15:55:54.400Z,95076.55
2023-08-07T15:58:23.399Z,95082.67
2023-08-07T16:00:50.867Z,95087.15
2023-08-07T16:03:18.313Z,95088.90
2023-08-07T16:05:45.742Z,95093.55
2023-08-07T16:08:12.537Z,95095.15
2023-08-07T16:10:39.459Z,95096.70
2023-08-07T16:13:06.509Z,95100.49
2023-08-07T16:15:34.891Z,95103.73
2023-08-07T16:18:03.902Z,95109.52
2023-08-07T16:20:31.858Z,95113.86
2023-08-07T16:22:58.727Z,95121.30
2023-08-07T16:25:25.669Z,95124.12
2023-08-07T16:27:52.906Z,95124.00
2023-08-07T16:30:19.956Z,95129.98
2023-08-07T16:32:46.638Z,95146.29
2023-08-07T16:35:14.672Z,95157.14
2023-08-07T16:37:42.733Z,95171.23
2023-08-07T16:40:10.913Z,95176.25
2023-08-07T16:42:37.981Z,95180.66
2023-08-07T16:45:05.803Z,95195.20
2023-08-07T16:47:32.745Z,95191.34
2023-08-07T16:49:59.974Z,95191.96
2023-08-07T16:52:27.403Z,95180.54
2023-08-07T16:54:55.013Z,95179.41
2023-08-07T16:57:22.543Z,95173.30
2023-08-07T16:59:49.466Z,95170.71
2023-08-07T17:02:16.434Z,95169.33
2023-08-07T17:04:43.566Z,95162.45
2023-08-07T17:07:10.913Z,95152.19
2023-08-07T17:09:37.965Z,95152.76
2023-08-07T17:12:05.740Z,95161.56
2023-08-07T17:14:33.546Z,95173.10
2023-08-07T17:17:00.616Z,95181.30
2023-08-07T17:19:28.024Z,95178.13
2023-08-07T17:21:55.057Z,95173.55
2023-08-07T17:24:21.910Z,95170.73
2023-08-07T17:26:48.857Z,95174.00
2023-08-07T17:29:15.629Z,95174.83
2023-08-07T17:31:43.556Z,95169.71
2023-08-07T17:34:11.298Z,95170.48
2023-08-07T17:36:38.493Z,95172.77
2023-08-07T17:39:05.731Z,95168.93
2023-08-07T17:41:32.696Z,95163.70
2023-08-07T17:43:59.630Z,95158.29
2023-08-07T17:46:26.642Z,95156.40
2023-08-07T17:48:54.035Z,95154.95
2023-08-07T17:51:20.916Z,95157.30
2023-08-07T17:53:47.853Z,95155.26
2023-08-07T17:56:14.675Z,95152.82
2023-08-07T17:58:41.440Z,95162.63
2023-08-07T18:01:08.819Z,95164.69
2023-08-07T18:03:35.943Z,95172.12
2023-08-07T18:06:03.119Z,95173.21
2023-08-07T18:08:29.867Z,95175.81
2023-08-07T18:10:56.973Z,95177.23
2023-08-07T18:13:24.055Z,95181.98
2023-08-07T18:15:51.180Z,95179.80
2023-08-07T18:18:18.385Z,95179.98
2023-08-07T18:20:45.597Z,95180.38
2023-08-07T18:23:14.586Z,95182.09
2023-08-07T18:25:41.743Z,95187.15
2023-08-07T18:28:08.687Z,95192.31
2023-08-07T18:30:35.426Z,95194.69
2023-08-07T18:33:02.529Z,95197.86
2023-08-07T18:35:29.320Z,95200.84
2023-08-07T18:37:57.460Z,95205.04
2023-08-07T18:40:24.371Z,95208.86
2023-08-07T18:42:51.481Z,95210.58
2023-08-07T18:45:21.055Z,95210.66
2023-08-07T18:47:48.065Z,95212.77
2023-08-07T18:50:14.849Z,95212.92
2023-08-07T18:52:41.645Z,95226.31
2023-08-07T18:55:09.593Z,95226.70
2023-08-07T18:57:36.766Z,95227.84
2023-08-07T19:00:06.724Z,95224.23
2023-08-07T19:02:33.715Z,95227.58
2023-08-07T19:05:01.074Z,95226.29
2023-08-07T19:07:28.217Z,95225.94
2023-08-07T19:09:55.290Z,95229.42
2023-08-07T19:12:22.530Z,95228.19
2023-08-07T19:14:49.599Z,95233.41
2023-08-07T19:17:16.524Z,95240.66
2023-08-07T19:19:43.474Z,95232.81
2023-08-07T19:22:10.615Z,95227.78
2023-08-07T19:24:40.121Z,95228.42
2023-08-07T19:27:07.280Z,95234.43
2023-08-07T19:29:34.118Z,95235.66
2023-08-07T19:32:01.505Z,95235.77
2023-08-07T19:34:28.522Z,95241.15
2023-08-07T19:36:55.489Z,95246.37
2023-08-07T19:39:24.915Z,95245.36
2023-08-07T19:41:51.637Z,95244.09
2023-08-07T19:44:18.566Z,95246.77
2023-08-07T19:46:45.646Z,95246.23
2023-08-07T19:49:12.666Z,95249.04
2023-08-07T19:51:39.922Z,95255.04
2023-08-07T19:54:08.317Z,95253.86
2023-08-07T19:56:36.794Z,95251.08
2023-08-07T19:59:05.925Z,95253.65
2023-08-07T20:01:33.409Z,95255.27
2023-08-07T20:04:01.169Z,95252.86
2023-08-07T20:06:36.100Z,95249.47
2023-08-07T20:09:03.704Z,95250.87
2023-08-07T20:11:38.216Z,95252.70
2023-08-07T20:14:05.416Z,95252.87
2023-08-07T20:16:33.774Z,95251.41
2023-08-07T20:19:00.630Z,95260.05
2023-08-07T20:21:28.482Z,95259.23
2023-08-07T20:23:55.755Z,95265.73
2023-08-07T20:26:24.836Z,95261.91
2023-08-07T20:28:51.911Z,95268.60
2023-08-07T20:31:18.983Z,95266.58
2023-08-07T20:33:45.926Z,95265.73
2023-08-07T20:36:12.833Z,95269.46
2023-08-07T20:38:39.770Z,95273.05
2023-08-07T20:41:06.639Z,95273.64
2023-08-07T20:43:33.586Z,95274.45
2023-08-07T20:46:00.552Z,95278.91
2023-08-07T20:48:27.368Z,95279.83
2023-08-07T20:50:54.550Z,95282.02
2023-08-07T20:53:22.785Z,95279.77
2023-08-07T20:55:49.850Z,95282.36
2023-08-07T20:58:16.898Z,95279.84
2023-08-07T21:00:43.949Z,95281.56
2023-08-07T21:03:11.426Z,95277.81
2023-08-07T21:05:38.542Z,95282.32
2023-08-07T21:08:06.335Z,95283.70
2023-08-07T21:10:33.261Z,95288.56
2023-08-07T21:13:00.025Z,95294.14
2023-08-07T21:15:29.926Z,95295.25
2023-08-07T21:17:58.195Z,95295.92
2023-08-07T21:20:25.396Z,95301.46
2023-08-07T21:22:53.954Z,95298.09
2023-08-07T21:25:21.738Z,95308.49
2023-08-07T21:27:48.748Z,95311.27
2023-08-07T21:30:15.760Z,95318.19
2023-08-07T21:32:44.658Z,95320.59
2023-08-07T21:35:12.466Z,95319.05
2023-08-07T21:37:40.035Z,95314.65
2023-08-07T21:40:09.571Z,95306.39
2023-08-07T21:42:36.586Z,95305.96
2023-08-07T21:45:04.257Z,95300.54
2023-08-07T21:47:31.123Z,95300.54
2023-08-07T21:49:58.335Z,95301.98
2023-08-07T21:52:25.395Z,95304.42
2023-08-07T21:54:52.263Z,95307.17
2023-08-07T21:57:19.603Z,95311.00
2023-08-07T21:59:46.644Z,95315.08
2023-08-07T22:02:13.633Z,95322.15
2023-08-07T22:04:40.996Z,95326.30
2023-08-07T22:07:08.000Z,95320.79
2023-08-07T22:09:35.081Z,95321.65
2023-08-07T22:12:02.514Z,95315.52
2023-08-07T22:14:29.458Z,95319.69
2023-08-07T22:16:56.600Z,95322.89
2023-08-07T22:19:23.864Z,95324.15
2023-08-07T22:21:50.801Z,95328.26
2023-08-07T22:24:17.759Z,95324.27
2023-08-07T22:26:44.823Z,95322.99
2023-08-07T22:29:11.854Z,95325.61
2023-08-07T22:31:38.925Z,95326.71
2023-08-07T22:34:06.326Z,95326.41
2023-08-07T22:36:33.649Z,95327.80
2023-08-07T22:39:00.473Z,95329.23
2023-08-07T22:41:27.721Z,95332.77
2023-08-07T22:43:54.618Z,95327.84
2023-08-07T22:46:21.877Z,95318.91
2023-08-07T22:48:48.995Z,95314.73
2023-08-07T22:51:15.965Z,95317.19
2023-08-07T22:53:42.871Z,95317.95
2023-08-07T22:56:09.951Z,95324.59
2023-08-07T22:58:36.968Z,95324.27
2023-08-07T23:01:04.158Z,95326.90
2023-08-07T23:03:31.484Z,95330.06
2023-08-07T23:05:58.742Z,95338.89
2023-08-07T23:08:25.704Z,95333.98
2023-08-07T23:10:53.544Z,95339.61
2023-08-07T23:13:20.592Z,95341.21
2023-08-07T23:15:47.877Z,95339.19
2023-08-07T23:18:15.134Z,95339.77
2023-08-07T23:20:42.260Z,95335.44
2023-08-07T23:23:09.407Z,95341.55
2023-08-07T23:25:36.375Z,95342.45
2023-08-07T23:28:03.925Z,95340.89
2023-08-07T23:30:30.895Z,95343.41
2023-08-07T23:32:57.878Z,95346.52
2023-08-07T23:35:25.158Z,95349.14
2023-08-07T23:37:52.626Z,95346.69
2023-08-07T23:40:19.869Z,95343.14
2023-08-07T23:42:47.943Z,95336.13
2023-08-07T23:45:14.925Z,95336.33
2023-08-07T23:47:42.020Z,95333.48
2023-08-07T23:50:09.911Z,95329.27
2023-08-07T23:52:37.816Z,95333.80
2023-08-07T23:55:05.240Z,95335.13
2023-08-07T23:57:32.297Z,95333.31
2023-08-07T23:59:59.142Z,95330.48
